Flight Track Log - Related Links

Times and Time Zones

All times are in EDT time to prevent confusion due to time zone crossing. See the VH-JXC flight status page for this flight to view local times or setup timezone preferences in your user account.

Time Position Orientation Groundspeed Altitude Reporting Facility
EDT Latitude Longitude Course Direction KTS MPH feet Rate Location/Type
Fri 01:56:51 AM -32.1353 115.9916 113° Southeast 114 131 1,700  Level Aus ATC (RADAR)
Fri 01:57:26 AM -32.1422 116.0104 113° Southeast 103 119 2,100 600 Climbing Aus ATC (RADAR)
Fri 01:58:11 AM -32.1556 116.0314 127° Southeast 102 117 2,500 600 Climbing Aus ATC (RADAR)
Fri 01:58:46 AM -32.1635 116.0471 121° Southeast 92 106 2,900 706 Climbing Aus ATC (RADAR)
Fri 01:59:36 AM -32.1764 116.0685 125° Southeast 92 106 3,500 600 Climbing Aus ATC (RADAR)
Fri 01:59:56 AM -32.1811 116.0766 125° Southeast 89 102 3,600 500 Climbing Aus ATC (RADAR)
Fri 02:00:36 AM -32.1904 116.0938 122° Southeast 89 102 4,000 563 Climbing Aus ATC (RADAR)
Fri 02:01:32 AM -32.2022 116.1201 118° Southeast 95 109 4,500 565 Climbing Aus ATC (RADAR)
Fri 02:02:01 AM -32.2095 116.1339 122° Southeast 94 108 4,800 656 Climbing Aus ATC (RADAR)
Fri 02:02:36 AM -32.2186 116.1499 124° Southeast 98 113 5,200 560 Climbing Aus ATC (RADAR)
Fri 02:03:16 AM -32.2284 116.1683 122° Southeast 95 109 5,500 400 Climbing Aus ATC (RADAR)
Fri 02:03:51 AM -32.2369 116.1871 118° Southeast 110 127 5,700 150 Climbing Aus ATC (RADAR)
Fri 02:04:36 AM -32.2525 116.2168 122° Southeast 140 161 5,700 -86 Level Aus ATC (RADAR)
Fri 02:05:01 AM -32.2618 116.2328 125° Southeast 139 160 5,600 -100 Descending Aus ATC (RADAR)
Fri 02:05:36 AM -32.2766 116.2572 126° Southeast 148 170 5,600  Level Aus ATC (RADAR)
Fri 02:06:31 AM -32.2983 116.2959 124° Southeast 151 174 5,600 76 Level Aus ATC (RADAR)
Fri 02:06:55 AM -32.3083 116.3136 124° Southeast 151 174 5,700 92 Climbing Aus ATC (RADAR)
Fri 02:07:36 AM -32.3267 116.3386 131° Southeast 147 169 5,700 -70 Level Aus ATC (RADAR)
Fri 02:08:21 AM -32.3442 116.3703 123° Southeast 148 170 5,600  Descending Aus ATC (RADAR)
Fri 02:08:56 AM -32.3587 116.3941 126° Southeast 146 168 5,700 75 Climbing Aus ATC (RADAR)
Fri 02:09:41 AM -32.3730 116.4289 116° Southeast 151 174 5,700  Level Aus ATC (RADAR)
Fri 02:10:15 AM -32.3844 116.4549 117° Southeast 149 171 5,700  Level Aus ATC (RADAR)
Fri 02:11:05 AM -32.4010 116.4928 118° Southeast 152 175 5,700  Level Aus ATC (RADAR)
Fri 02:11:35 AM -32.4124 116.5136 123° Southeast 147 169 5,700 -120 Level Aus ATC (RADAR)
Fri 02:11:55 AM -32.4199 116.5284 121° Southeast 148 170 5,600  Descending Aus ATC (RADAR)
Fri 02:12:15 AM -32.4276 116.5430 122° Southeast 152 175 5,700 300 Climbing Aus ATC (RADAR)
Fri 02:15:34 AM -32.4867 116.6809 117° Southeast 5,500 -60 Descending Aus ATC (Calculated)
Fri 02:17:00 AM -32.5118 116.7396 117° Southeast  Level FlightAware Approximate
Fri 02:18:00 AM -32.5294 116.7806 117° Southeast  Level FlightAware Approximate
Fri 02:19:00 AM -32.5468 116.8215 117° Southeast  Level FlightAware Approximate
Fri 02:20:00 AM -32.5643 116.8625 117° Southeast  Level FlightAware Approximate
Fri 02:21:00 AM -32.5818 116.9035 117° Southeast  Level FlightAware Approximate
Fri 02:22:00 AM -32.5992 116.9446 117° Southeast  Level FlightAware Approximate
Fri 02:23:00 AM -32.6166 116.9856 117° Southeast  Level FlightAware Approximate
Fri 02:24:00 AM -32.6341 117.0267 117° Southeast  Level FlightAware Approximate
Fri 02:25:00 AM -32.6515 117.0677 117° Southeast  Level FlightAware Approximate
Fri 02:26:00 AM -32.6689 117.1088 117° Southeast  Level FlightAware Approximate
Fri 02:27:00 AM -32.6862 117.1499 117° Southeast  Level FlightAware Approximate
Fri 02:28:00 AM -32.7036 117.1911 117° Southeast  Level FlightAware Approximate
Fri 02:29:00 AM -32.7210 117.2322 117° Southeast  Level FlightAware Approximate
Fri 02:30:00 AM -32.7383 117.2734 117° Southeast  Level FlightAware Approximate
Fri 02:31:00 AM -32.7556 117.3145 117° Southeast  Level FlightAware Approximate
Fri 02:32:00 AM -32.7729 117.3557 117° Southeast  Level FlightAware Approximate
Fri 02:33:00 AM -32.7902 117.3969 117° Southeast  Level FlightAware Approximate
Fri 02:34:00 AM -32.8075 117.4381 117° Southeast  Level FlightAware Approximate
Fri 02:35:00 AM -32.8248 117.4794 117° Southeast  Level FlightAware Approximate
Fri 02:35:54 AM -32.8966 117.6512 296° West 5,500  Level Aus ATC (Calculated)
Fri 02:36:00 AM -32.8421 117.5206 116° Southeast  Level FlightAware Approximate
Fri 02:36:17 AM -32.8966 117.6512 360° North 2,500  Level Aus ATC (Calculated)
Fri 02:37:00 AM -32.8540 117.6512 North  Level FlightAware Approximate
Fri 02:38:00 AM -32.8301 117.6512 North  Level FlightAware Approximate
Fri 02:39:00 AM -32.8688 117.6512 180° South  Level FlightAware Approximate
Fri 02:40:00 AM -32.9075 117.6512 180° South  Level FlightAware Approximate
Fri 02:41:00 AM -32.8688 117.6511 360° North  Level FlightAware Approximate
Fri 02:42:00 AM -32.9026 117.6399 237° Southwest  Level FlightAware Approximate
Fri 02:43:00 AM -32.9234 117.6010 238° Southwest  Level FlightAware Approximate
Fri 02:44:00 AM -32.9442 117.5621 238° Southwest  Level FlightAware Approximate
Fri 02:45:00 AM -32.9649 117.5231 238° Southwest  Level FlightAware Approximate
Fri 02:46:00 AM -32.9857 117.4842 238° Southwest  Level FlightAware Approximate
Fri 02:47:00 AM -33.0064 117.4452 238° Southwest  Level FlightAware Approximate
Fri 02:48:00 AM -33.0272 117.4062 238° Southwest  Level FlightAware Approximate
Fri 02:49:00 AM -33.0479 117.3672 238° Southwest  Level FlightAware Approximate
Fri 02:50:00 AM -33.0686 117.3281 238° Southwest  Level FlightAware Approximate
Fri 02:51:00 AM -33.0893 117.2891 238° Southwest  Level FlightAware Approximate
Fri 02:51:34 AM -33.2114 117.0579 58° Northeast 2,500  Level Aus ATC (Calculated)
Fri 02:52:00 AM -33.1100 117.2500 238° Southwest  Level FlightAware Approximate
Fri 02:53:00 AM -33.1559 117.0579 North  Level FlightAware Approximate
Fri 02:54:00 AM -33.1946 117.0579 180° South  Level FlightAware Approximate
Fri 02:55:00 AM -33.2333 117.0579 180° South  Level FlightAware Approximate
Fri 02:56:00 AM -33.1946 117.0579 360° North  Level FlightAware Approximate
Fri 02:57:00 AM -33.1978 117.0399 312° West  Level FlightAware Approximate
Fri 02:58:00 AM -33.1719 117.0056 312° West  Level FlightAware Approximate
Fri 02:59:00 AM -33.1460 116.9713 312° West  Level FlightAware Approximate
Fri 03:00:00 AM -33.1200 116.9370 312° West  Level FlightAware Approximate
Fri 03:01:00 AM -33.0940 116.9027 312° West  Level FlightAware Approximate
Fri 03:02:00 AM -33.0681 116.8684 312° West  Level FlightAware Approximate
Fri 03:03:00 AM -33.0421 116.8341 312° West  Level FlightAware Approximate
Fri 03:04:00 AM -33.0161 116.7999 312° West  Level FlightAware Approximate
Fri 03:04:19 AM -32.8889 116.6329 360° North  Level Aus ATC (Calculated)
Fri 03:06:00 AM -32.8237 116.6329 North  Level FlightAware Approximate
Fri 03:07:00 AM -32.8624 116.6329 180° South  Level FlightAware Approximate
Fri 03:08:00 AM -32.9011 116.6329 180° South  Level FlightAware Approximate
Fri 03:09:00 AM -32.8624 116.6329 360° North  Level FlightAware Approximate
Fri 03:10:00 AM -32.8935 116.6053 218° Southwest  Level Estimated
Fri 03:11:00 AM -32.9246 116.5778 217° Southwest  Level FlightAware Approximate
Fri 03:12:00 AM -32.9556 116.5503 217° Southwest  Level FlightAware Approximate
Fri 03:13:00 AM -32.9867 116.5227 217° Southwest  Level FlightAware Approximate
Fri 03:14:00 AM -33.0177 116.4951 217° Southwest  Level FlightAware Approximate
Fri 03:15:00 AM -33.0488 116.4675 217° Southwest  Level FlightAware Approximate
Fri 03:16:00 AM -33.0798 116.4399 217° Southwest  Level FlightAware Approximate
Fri 03:17:00 AM -33.1108 116.4122 217° Southwest  Level FlightAware Approximate
Fri 03:18:00 AM -33.1418 116.3846 217° Southwest  Level FlightAware Approximate
Fri 03:19:00 AM -33.1729 116.3569 217° Southwest  Level FlightAware Approximate
Fri 03:20:00 AM -33.2039 116.3292 217° Southwest  Level FlightAware Approximate
Fri 03:21:00 AM -33.2349 116.3015 217° Southwest  Level FlightAware Approximate
Fri 03:22:00 AM -33.2659 116.2737 217° Southwest  Level FlightAware Approximate
Fri 03:23:00 AM -33.2969 116.2459 217° Southwest  Level FlightAware Approximate
Fri 03:24:00 AM -33.3279 116.2182 217° Southwest  Level FlightAware Approximate
Fri 03:25:00 AM -33.3588 116.1904 218° Southwest  Level Estimated
Fri 03:26:00 AM -33.3667 116.1833 218° Southwest  Level FlightAware Approximate
Fri 03:27:00 AM -33.3667 116.1833 218° Southwest  Level Estimated
Fri 03:28:00 AM -33.3667 116.1833 218° Southwest  Level Estimated

Login

Don't have an account? Register now (free) for customized features, flight alerts, and more!